createdAt,value
2024-02-10T00:00:50.981Z,61.69
2024-02-10T00:03:19.166Z,61.91
2024-02-10T00:05:47.373Z,62.98
2024-02-10T00:08:15.588Z,62.27
2024-02-10T00:10:43.776Z,61.95
2024-02-10T00:13:13.709Z,61.70
2024-02-10T00:15:42.133Z,62.21
2024-02-10T00:18:11.544Z,63.04
2024-02-10T00:20:39.866Z,63.30
2024-02-10T00:23:09.605Z,61.93
2024-02-10T00:25:39.395Z,61.83
2024-02-10T00:28:10.363Z,61.67
2024-02-10T00:30:41.042Z,62.16
2024-02-10T00:33:10.106Z,61.80
2024-02-10T00:35:38.391Z,61.82
2024-02-10T00:38:06.565Z,63.01
2024-02-10T00:40:34.946Z,62.91
2024-02-10T00:43:05.543Z,62.23
2024-02-10T00:45:33.896Z,62.51
2024-02-10T00:48:03.754Z,61.98
2024-02-10T00:50:32.368Z,61.97
2024-02-10T00:53:03.941Z,62.71
2024-02-10T00:55:32.736Z,62.40
2024-02-10T00:58:03.815Z,63.13
2024-02-10T01:00:33.101Z,62.73
2024-02-10T01:03:01.885Z,63.00
2024-02-10T01:05:32.199Z,63.00
2024-02-10T01:08:01.757Z,63.26
2024-02-10T01:10:32.203Z,63.51
2024-02-10T01:13:02.880Z,64.16
2024-02-10T01:15:34.542Z,64.41
2024-02-10T01:18:04.371Z,63.25
2024-02-10T01:20:36.728Z,62.50
2024-02-10T01:23:05.411Z,62.53
2024-02-10T01:25:33.606Z,62.73
2024-02-10T01:28:02.964Z,63.13
2024-02-10T01:30:31.231Z,63.52
2024-02-10T01:33:00.324Z,63.50
2024-02-10T01:35:28.873Z,63.23
2024-02-10T01:38:01.035Z,63.68
2024-02-10T01:40:29.478Z,63.56
2024-02-10T01:42:57.702Z,63.16
2024-02-10T01:45:26.127Z,63.14
2024-02-10T01:47:54.394Z,63.56
2024-02-10T01:50:22.938Z,63.17
2024-02-10T01:52:50.390Z,63.24
2024-02-10T01:55:20.944Z,63.98
2024-02-10T01:57:55.506Z,63.98
2024-02-10T02:03:01.036Z,63.82
2024-02-10T02:05:30.295Z,63.90
2024-02-10T02:07:58.949Z,63.31
2024-02-10T02:10:28.539Z,63.78
2024-02-10T02:12:58.916Z,63.63
2024-02-10T02:15:28.635Z,64.62
2024-02-10T02:17:58.948Z,64.60
2024-02-10T02:20:29.516Z,64.24
2024-02-10T02:22:58.967Z,64.74
2024-02-10T02:25:27.004Z,64.94
2024-02-10T02:27:54.984Z,65.18
2024-02-10T02:30:23.058Z,65.00
2024-02-10T02:32:52.018Z,64.63
2024-02-10T02:35:20.177Z,64.39
2024-02-10T02:37:48.452Z,64.22
2024-02-10T02:40:18.465Z,63.93
2024-02-10T02:42:47.454Z,64.31
2024-02-10T02:45:15.755Z,64.60
2024-02-10T02:47:43.949Z,64.01
2024-02-10T02:50:16.548Z,64.24
2024-02-10T02:52:45.763Z,65.08
2024-02-10T02:55:13.970Z,64.23
2024-02-10T02:57:44.251Z,63.70
2024-02-10T03:00:14.167Z,64.00
2024-02-10T03:02:44.064Z,63.70
2024-02-10T03:05:13.593Z,63.30
2024-02-10T03:07:44.532Z,63.60
2024-02-10T03:10:13.034Z,63.36
2024-02-10T03:12:42.858Z,63.19
2024-02-10T03:15:15.786Z,63.40
2024-02-10T03:17:47.769Z,63.76
2024-02-10T03:20:22.639Z,64.74
2024-02-10T03:22:59.735Z,65.70
2024-02-10T03:25:29.792Z,66.28
2024-02-10T03:27:58.263Z,66.72
2024-02-10T03:30:27.704Z,66.35
2024-02-10T03:32:56.959Z,66.61
2024-02-10T03:35:28.039Z,66.26
2024-02-10T03:37:56.424Z,65.87
2024-02-10T03:40:24.766Z,65.40
2024-02-10T03:42:52.858Z,65.82
2024-02-10T03:45:20.956Z,65.74
2024-02-10T03:47:51.979Z,65.08
2024-02-10T03:50:20.539Z,64.93
2024-02-10T03:52:49.834Z,64.73
2024-02-10T03:55:18.591Z,64.82
2024-02-10T03:57:46.844Z,64.44
2024-02-10T04:00:22.154Z,64.53
2024-02-10T04:02:50.706Z,63.90
2024-02-10T04:05:19.038Z,64.74
2024-02-10T04:07:51.122Z,64.04
2024-02-10T04:10:20.116Z,64.36
2024-02-10T04:12:48.702Z,64.70
2024-02-10T04:15:16.966Z,63.98
2024-02-10T04:17:50.292Z,63.65
2024-02-10T04:20:21.198Z,64.27
2024-02-10T04:22:49.298Z,64.47
2024-02-10T04:25:17.486Z,64.55
2024-02-10T04:27:45.697Z,64.55
2024-02-10T04:30:14.881Z,64.17
2024-02-10T04:32:43.985Z,63.98
2024-02-10T04:35:12.145Z,63.60
2024-02-10T04:37:50.358Z,64.08
2024-02-10T04:40:18.833Z,63.21
2024-02-10T04:42:47.306Z,62.61
2024-02-10T04:45:25.323Z,62.54
2024-02-10T04:47:54.034Z,62.90
2024-02-10T04:50:22.493Z,62.30
2024-02-10T04:52:52.265Z,62.47
2024-02-10T04:55:21.194Z,62.69
2024-02-10T04:57:49.580Z,62.50
2024-02-10T05:00:18.209Z,62.15
2024-02-10T05:02:46.774Z,61.60
2024-02-10T05:05:15.289Z,61.78
2024-02-10T05:07:44.542Z,61.06
2024-02-10T05:10:16.865Z,61.19
2024-02-10T05:12:46.178Z,61.38
2024-02-10T05:15:15.987Z,60.51
2024-02-10T05:17:44.085Z,60.98
2024-02-10T05:20:20.449Z,60.89
2024-02-10T05:22:49.727Z,61.02
2024-02-10T05:25:21.866Z,60.94
2024-02-10T05:27:50.883Z,60.58
2024-02-10T05:30:26.030Z,59.81
2024-02-10T05:32:58.032Z,59.46
2024-02-10T05:35:27.891Z,59.46
2024-02-10T05:37:57.971Z,59.08
2024-02-10T05:40:29.250Z,58.87
2024-02-10T05:43:00.538Z,60.13
2024-02-10T05:45:29.431Z,60.73
2024-02-10T05:47:57.581Z,60.58
2024-02-10T05:50:26.727Z,60.07
2024-02-10T05:52:59.295Z,60.07
2024-02-10T05:55:31.272Z,59.91
2024-02-10T05:58:03.270Z,61.07
2024-02-10T06:00:32.850Z,60.78
2024-02-10T06:03:01.570Z,60.33
2024-02-10T06:05:30.306Z,60.02
2024-02-10T06:07:59.157Z,60.10
2024-02-10T06:10:27.582Z,61.21
2024-02-10T06:12:57.115Z,61.05
2024-02-10T06:15:27.118Z,60.64
2024-02-10T06:17:57.789Z,59.95
2024-02-10T06:20:26.755Z,60.75
2024-02-10T06:22:56.645Z,62.08
2024-02-10T06:25:27.742Z,61.27
2024-02-10T06:28:00.964Z,61.30
2024-02-10T06:30:35.053Z,60.69
2024-02-10T06:33:05.987Z,60.98
2024-02-10T06:35:35.751Z,60.51
2024-02-10T06:38:04.861Z,61.47
2024-02-10T06:40:32.999Z,61.31
2024-02-10T06:43:04.026Z,61.54
2024-02-10T06:45:32.392Z,62.06
2024-02-10T06:48:00.580Z,61.83
2024-02-10T06:50:29.619Z,61.90
2024-02-10T06:53:01.542Z,62.31
2024-02-10T06:55:30.730Z,61.78
2024-02-10T06:57:59.059Z,62.01
2024-02-10T07:00:30.469Z,62.55
2024-02-10T07:02:59.030Z,61.97
2024-02-10T07:05:27.840Z,62.57
2024-02-10T07:07:57.207Z,61.98
2024-02-10T07:10:26.226Z,61.66
2024-02-10T07:12:58.595Z,62.12
2024-02-10T07:15:31.740Z,62.87
2024-02-10T07:18:03.635Z,62.50
2024-02-10T07:20:33.670Z,61.47
2024-02-10T07:23:05.490Z,61.45
2024-02-10T07:25:37.082Z,61.12
2024-02-10T07:28:06.685Z,60.91
2024-02-10T07:30:36.867Z,60.66
2024-02-10T07:33:11.195Z,54.68
2024-02-10T07:35:41.392Z,52.97
2024-02-10T07:38:10.689Z,54.84
2024-02-10T07:40:39.733Z,54.62
2024-02-10T07:43:13.970Z,54.28
2024-02-10T07:45:43.746Z,54.17
2024-02-10T07:48:12.991Z,53.21
2024-02-10T07:50:43.196Z,53.32
2024-02-10T07:53:15.379Z,53.25
2024-02-10T07:55:46.144Z,53.16
2024-02-10T07:58:17.205Z,53.54
2024-02-10T08:00:48.383Z,53.01
2024-02-10T08:03:16.739Z,53.43
2024-02-10T08:05:44.933Z,53.88
2024-02-10T08:08:13.231Z,53.28
2024-02-10T08:10:41.435Z,54.18
2024-02-10T08:13:10.075Z,55.00
2024-02-10T08:15:38.528Z,54.74
2024-02-10T08:18:10.139Z,54.77
2024-02-10T08:20:41.726Z,55.12
2024-02-10T08:23:13.777Z,55.14
2024-02-10T08:25:43.168Z,55.81
2024-02-10T08:28:12.499Z,55.66
2024-02-10T08:30:41.905Z,54.88
2024-02-10T08:33:11.368Z,56.09
2024-02-10T08:35:40.937Z,56.31
2024-02-10T08:38:10.790Z,55.59
2024-02-10T08:40:38.803Z,56.01
2024-02-10T08:43:09.899Z,54.09
2024-02-10T08:45:40.301Z,54.51
2024-02-10T08:48:11.768Z,54.64
2024-02-10T08:50:42.385Z,53.61
2024-02-10T08:53:10.911Z,53.36
2024-02-10T08:55:39.034Z,53.53
2024-02-10T08:58:07.423Z,52.77
2024-02-10T09:00:36.314Z,51.98
2024-02-10T09:03:04.858Z,52.43
2024-02-10T09:05:32.979Z,52.46
2024-02-10T09:08:02.610Z,52.90
2024-02-10T09:10:30.770Z,53.07
2024-02-10T09:13:00.960Z,53.12
2024-02-10T09:15:30.385Z,53.43
2024-02-10T09:17:58.636Z,54.04
2024-02-10T09:20:32.530Z,53.66
2024-02-10T09:23:04.307Z,53.09
2024-02-10T09:25:38.214Z,53.39
2024-02-10T09:28:07.353Z,53.25
2024-02-10T09:30:37.055Z,52.87
2024-02-10T09:33:09.583Z,52.73
2024-02-10T09:35:41.397Z,52.46
2024-02-10T09:38:14.677Z,52.14
2024-02-10T09:40:44.608Z,52.18
2024-02-10T09:43:15.929Z,51.51
2024-02-10T09:45:46.442Z,50.93
2024-02-10T09:48:20.073Z,51.05
2024-02-10T09:50:48.740Z,51.03
2024-02-10T09:53:18.363Z,50.99
2024-02-10T09:55:47.422Z,50.45
2024-02-10T09:58:18.334Z,50.14
2024-02-10T10:00:49.382Z,50.14
2024-02-10T10:03:17.548Z,49.08
2024-02-10T10:05:47.432Z,49.60
2024-02-10T10:08:23.145Z,49.86
2024-02-10T10:10:52.081Z,50.18
2024-02-10T10:13:20.232Z,49.70
2024-02-10T10:15:48.417Z,49.57
2024-02-10T10:18:17.531Z,48.90
2024-02-10T10:20:47.137Z,49.07
2024-02-10T10:23:15.878Z,49.10
2024-02-10T10:25:47.834Z,48.60
2024-02-10T10:28:18.014Z,48.41
2024-02-10T10:30:49.856Z,48.44
2024-02-10T10:33:22.635Z,47.74
2024-02-10T10:35:51.749Z,45.78
2024-02-10T10:38:23.469Z,40.87
2024-02-10T10:40:54.505Z,43.92
2024-02-10T10:43:23.903Z,45.04
2024-02-10T10:45:52.430Z,43.27
2024-02-10T10:48:20.973Z,39.99
2024-02-10T10:50:57.506Z,40.19
2024-02-10T10:53:29.204Z,38.23
2024-02-10T10:56:02.932Z,34.64
2024-02-10T10:58:40.622Z,37.83
2024-02-10T11:01:12.835Z,38.15
2024-02-10T11:03:43.699Z,38.40
2024-02-10T11:06:13.412Z,37.50
2024-02-10T11:08:46.704Z,36.56
2024-02-10T11:11:16.949Z,36.04
2024-02-10T11:13:45.064Z,36.68
2024-02-10T11:16:15.257Z,36.50
2024-02-10T11:18:46.351Z,34.25
2024-02-10T11:21:20.411Z,30.64
2024-02-10T11:24:08.831Z,30.25
2024-02-10T11:26:41.225Z,30.08
2024-02-10T11:29:10.738Z,29.13
2024-02-10T11:31:41.749Z,30.76
2024-02-10T11:34:15.884Z,32.04
2024-02-10T11:36:50.235Z,32.12
2024-02-10T11:39:20.218Z,32.74
2024-02-10T11:41:50.104Z,33.47
2024-02-10T11:44:18.135Z,32.87
2024-02-10T11:46:47.103Z,32.94
2024-02-10T11:49:15.371Z,33.12
2024-02-10T11:51:43.581Z,32.96
2024-02-10T11:54:11.824Z,33.11
2024-02-10T11:56:39.909Z,33.39
2024-02-10T11:59:10.143Z,33.51
2024-02-10T12:01:39.043Z,33.76
2024-02-10T12:04:07.716Z,32.87
2024-02-10T12:06:38.981Z,33.23
2024-02-10T12:09:11.323Z,33.46
2024-02-10T12:11:40.245Z,33.39
2024-02-10T12:14:15.915Z,33.55
2024-02-10T12:16:46.156Z,33.02
2024-02-10T12:19:16.105Z,33.46
2024-02-10T12:21:44.167Z,33.34
2024-02-10T12:24:13.198Z,32.73
2024-02-10T12:26:41.332Z,32.59
2024-02-10T12:29:14.104Z,33.00
2024-02-10T12:31:43.443Z,32.53
2024-02-10T12:34:11.769Z,32.67
2024-02-10T12:36:40.276Z,32.25
2024-02-10T12:39:11.194Z,32.42
2024-02-10T12:41:39.773Z,32.88
2024-02-10T12:44:08.029Z,32.68
2024-02-10T12:46:37.513Z,32.79
2024-02-10T12:49:06.041Z,33.16
2024-02-10T12:51:35.070Z,32.11
2024-02-10T12:54:03.499Z,31.11
2024-02-10T12:56:31.731Z,31.16
2024-02-10T12:59:00.059Z,30.60
2024-02-10T13:01:32.372Z,30.58
2024-02-10T13:04:03.899Z,30.64
2024-02-10T13:06:33.169Z,30.65
2024-02-10T13:09:01.339Z,30.34
2024-02-10T13:11:29.700Z,30.18
2024-02-10T13:13:58.079Z,30.10
2024-02-10T13:16:26.163Z,30.25
2024-02-10T13:18:54.293Z,29.98
2024-02-10T13:21:23.877Z,30.39
2024-02-10T13:23:51.952Z,30.05
2024-02-10T13:26:22.496Z,30.32
2024-02-10T13:28:53.537Z,30.21
2024-02-10T13:31:24.194Z,30.21
2024-02-10T13:33:53.412Z,29.97
2024-02-10T13:36:28.483Z,29.80
2024-02-10T13:39:13.984Z,29.74
2024-02-10T13:41:59.405Z,29.90
2024-02-10T13:44:44.639Z,29.42
2024-02-10T13:47:30.153Z,29.20
2024-02-10T13:50:16.167Z,29.14
2024-02-10T13:53:03.366Z,29.33
2024-02-10T13:55:49.875Z,29.22
2024-02-10T13:58:20.370Z,29.63
2024-02-10T14:00:49.027Z,29.70
2024-02-10T14:03:17.051Z,28.93
2024-02-10T14:06:07.937Z,28.89
2024-02-10T14:08:50.542Z,28.83
2024-02-10T14:11:32.749Z,28.64
2024-02-10T14:14:01.130Z,28.33
2024-02-10T14:16:32.049Z,28.79
2024-02-10T14:19:03.410Z,28.82
2024-02-10T14:21:34.498Z,29.17
2024-02-10T14:24:06.499Z,29.11
2024-02-10T14:26:43.476Z,28.87
2024-02-10T14:29:21.636Z,28.31
2024-02-10T14:31:52.556Z,27.91
2024-02-10T14:34:38.344Z,27.94
2024-02-10T14:37:28.049Z,28.16
2024-02-10T14:40:01.211Z,28.01
2024-02-10T14:42:29.893Z,28.73
2024-02-10T14:44:57.928Z,27.47
2024-02-10T14:47:26.836Z,27.61
2024-02-10T14:49:55.537Z,27.56
2024-02-10T14:52:24.787Z,28.06
2024-02-10T14:54:57.563Z,28.16
2024-02-10T14:57:27.306Z,28.58
2024-02-10T14:59:55.700Z,28.19
2024-02-10T15:02:27.171Z,28.77
2024-02-10T15:04:55.446Z,28.86
2024-02-10T15:07:25.622Z,29.92
2024-02-10T15:09:54.304Z,29.61
2024-02-10T15:12:22.550Z,29.72
2024-02-10T15:14:53.473Z,30.61
2024-02-10T15:17:22.025Z,31.10
2024-02-10T15:19:50.042Z,31.26
2024-02-10T15:22:20.539Z,31.80
2024-02-10T15:24:49.022Z,31.58
2024-02-10T15:27:17.216Z,31.55
2024-02-10T15:29:47.682Z,31.24
2024-02-10T15:32:17.256Z,31.15
2024-02-10T15:34:55.103Z,31.42
2024-02-10T15:37:30.032Z,31.59
2024-02-10T15:39:58.324Z,30.93
2024-02-10T15:42:28.340Z,30.33
2024-02-10T15:44:56.634Z,30.18
2024-02-10T15:47:26.197Z,30.50
2024-02-10T15:49:57.241Z,30.53
2024-02-10T15:52:26.917Z,29.83
2024-02-10T15:54:55.263Z,29.79
2024-02-10T15:57:23.305Z,29.55
2024-02-10T15:59:51.377Z,29.58
2024-02-10T16:02:20.719Z,29.64
2024-02-10T16:04:50.708Z,30.26
2024-02-10T16:07:24.301Z,29.86
2024-02-10T16:09:52.419Z,29.71
2024-02-10T16:12:21.323Z,29.92
2024-02-10T16:14:49.517Z,30.13
2024-02-10T16:17:18.113Z,30.35
2024-02-10T16:19:50.206Z,30.72
2024-02-10T16:22:19.875Z,30.73
2024-02-10T16:24:50.171Z,30.68
2024-02-10T16:27:23.300Z,30.34
2024-02-10T16:29:52.854Z,30.30
2024-02-10T16:32:20.981Z,30.43
2024-02-10T16:34:49.822Z,30.26
2024-02-10T16:37:19.418Z,30.26
2024-02-10T16:39:49.484Z,30.25
2024-02-10T16:42:17.732Z,30.24
2024-02-10T16:44:45.780Z,30.27
2024-02-10T16:47:13.891Z,29.96
2024-02-10T16:49:41.993Z,29.96
2024-02-10T16:52:10.233Z,30.28
2024-02-10T16:54:41.866Z,30.44
2024-02-10T16:57:11.514Z,30.56
2024-02-10T16:59:40.335Z,30.85
2024-02-10T17:02:09.892Z,30.94
2024-02-10T17:04:39.119Z,30.45
2024-02-10T17:07:08.665Z,30.88
2024-02-10T17:09:37.314Z,30.57
2024-02-10T17:12:07.430Z,30.54
2024-02-10T17:14:36.384Z,30.58
2024-02-10T17:17:04.471Z,30.54
2024-02-10T17:19:32.909Z,29.72
2024-02-10T17:22:01.076Z,29.60
2024-02-10T17:24:29.263Z,29.71
2024-02-10T17:26:57.950Z,30.07
2024-02-10T17:29:27.351Z,29.82
2024-02-10T17:31:55.599Z,29.65
2024-02-10T17:34:23.869Z,29.72
2024-02-10T17:36:51.912Z,29.55
2024-02-10T17:39:21.672Z,29.82
2024-02-10T17:41:49.774Z,29.43
2024-02-10T17:44:17.875Z,29.47
2024-02-10T17:46:50.552Z,29.64
2024-02-10T17:49:21.144Z,29.15
2024-02-10T17:51:49.191Z,29.38
2024-02-10T17:54:21.384Z,29.11
2024-02-10T17:56:50.013Z,28.65
2024-02-10T17:59:20.051Z,28.65
2024-02-10T18:01:49.695Z,28.45
2024-02-10T18:04:18.116Z,27.90
2024-02-10T18:06:46.419Z,27.72
2024-02-10T18:09:14.718Z,27.71
2024-02-10T18:11:46.050Z,27.94
2024-02-10T18:14:17.792Z,27.75
2024-02-10T18:16:47.392Z,28.07
2024-02-10T18:19:18.096Z,28.58
2024-02-10T18:21:46.246Z,28.93
2024-02-10T18:24:17.331Z,28.77
2024-02-10T18:26:47.007Z,29.02
2024-02-10T18:29:17.831Z,28.99
2024-02-10T18:35:20.520Z,29.19
2024-02-10T18:41:29.448Z,28.82
2024-02-10T18:44:41.692Z,28.79
2024-02-10T18:47:42.380Z,28.41
2024-02-10T18:50:18.122Z,27.98
2024-02-10T18:52:47.579Z,27.92
2024-02-10T18:55:16.515Z,27.89
2024-02-10T18:57:44.606Z,27.90
2024-02-10T19:00:14.860Z,28.02
2024-02-10T19:02:43.081Z,27.94
2024-02-10T19:05:11.083Z,27.81
2024-02-10T19:07:40.836Z,27.68
2024-02-10T19:10:09.524Z,27.73
2024-02-10T19:12:38.095Z,27.28
2024-02-10T19:15:09.517Z,27.73
2024-02-10T19:17:38.619Z,27.74
2024-02-10T19:20:08.754Z,27.86
2024-02-10T19:22:37.305Z,28.07
2024-02-10T19:25:08.511Z,28.14
2024-02-10T19:27:39.980Z,28.42
2024-02-10T19:30:11.246Z,28.77
2024-02-10T19:32:40.331Z,29.09
2024-02-10T19:35:16.390Z,29.02
2024-02-10T19:37:47.594Z,29.02
2024-02-10T19:40:17.833Z,29.44
2024-02-10T19:42:47.026Z,29.75
2024-02-10T19:45:16.527Z,29.74
2024-02-10T19:47:48.094Z,29.47
2024-02-10T19:50:18.756Z,29.94
2024-02-10T19:52:48.046Z,29.91
2024-02-10T19:55:20.770Z,29.77
2024-02-10T19:57:49.188Z,29.91
2024-02-10T20:00:19.518Z,29.79
2024-02-10T20:02:47.627Z,29.54
2024-02-10T20:05:18.746Z,29.46
2024-02-10T20:07:48.210Z,29.09
2024-02-10T20:10:19.346Z,29.15
2024-02-10T20:12:48.387Z,29.06
2024-02-10T20:15:16.549Z,29.24
2024-02-10T20:17:48.574Z,29.08
2024-02-10T20:20:18.665Z,29.20
2024-02-10T20:22:47.590Z,29.21
2024-02-10T20:25:17.248Z,29.20
2024-02-10T20:27:46.316Z,29.02
2024-02-10T20:30:15.479Z,28.84
2024-02-10T20:32:43.611Z,29.11
2024-02-10T20:35:12.275Z,28.75
2024-02-10T20:37:41.104Z,28.72
2024-02-10T20:40:13.555Z,28.73
2024-02-10T20:42:43.544Z,28.84
2024-02-10T20:45:17.196Z,28.12
2024-02-10T20:47:45.583Z,28.23
2024-02-10T20:50:15.066Z,28.19
2024-02-10T20:52:43.335Z,28.35
2024-02-10T20:55:14.734Z,27.93
2024-02-10T20:57:46.573Z,28.44
2024-02-10T21:00:15.470Z,27.87
2024-02-10T21:02:43.651Z,28.00
2024-02-10T21:05:13.411Z,28.13
2024-02-10T21:07:41.273Z,28.22
2024-02-10T21:10:10.854Z,28.28
2024-02-10T21:12:41.421Z,28.30
2024-02-10T21:15:12.722Z,28.42
2024-02-10T21:17:41.290Z,28.92
2024-02-10T21:20:15.905Z,29.21
2024-02-10T21:22:47.730Z,29.03
2024-02-10T21:25:16.694Z,28.99
2024-02-10T21:27:45.013Z,29.24
2024-02-10T21:30:15.331Z,29.01
2024-02-10T21:32:44.198Z,29.30
2024-02-10T21:35:12.836Z,28.87
2024-02-10T21:37:41.867Z,29.04
2024-02-10T21:40:13.868Z,29.92
2024-02-10T21:42:42.375Z,30.44
2024-02-10T21:45:10.917Z,31.14
2024-02-10T21:47:41.186Z,31.04
2024-02-10T21:50:10.032Z,31.63
2024-02-10T21:52:38.652Z,32.29
2024-02-10T21:55:09.938Z,32.42
2024-02-10T21:57:40.226Z,32.19
2024-02-10T22:00:11.854Z,32.06
2024-02-10T22:02:41.753Z,31.53
2024-02-10T22:05:11.020Z,31.24
2024-02-10T22:07:40.741Z,31.34
2024-02-10T22:10:13.098Z,31.27
2024-02-10T22:12:41.935Z,30.89
2024-02-10T22:15:11.812Z,30.85
2024-02-10T22:17:41.253Z,30.47
2024-02-10T22:20:14.087Z,30.18
2024-02-10T22:22:42.309Z,29.98
2024-02-10T22:25:11.770Z,29.84
2024-02-10T22:27:41.478Z,29.37
2024-02-10T22:30:11.805Z,29.27
2024-02-10T22:32:41.264Z,29.26
2024-02-10T22:35:15.288Z,29.34
2024-02-10T22:37:44.855Z,29.44
2024-02-10T22:40:17.599Z,29.35
2024-02-10T22:42:46.963Z,29.34
2024-02-10T22:45:15.938Z,29.39
2024-02-10T22:47:46.472Z,29.66
2024-02-10T22:50:17.601Z,29.76
2024-02-10T22:52:45.852Z,29.66
2024-02-10T22:55:13.836Z,30.04
2024-02-10T22:57:42.623Z,29.58
2024-02-10T23:00:19.713Z,29.56
2024-02-10T23:02:50.508Z,29.42
2024-02-10T23:05:21.475Z,29.76
2024-02-10T23:07:51.262Z,29.46
2024-02-10T23:10:19.339Z,29.37
2024-02-10T23:12:51.212Z,29.45
2024-02-10T23:15:23.109Z,29.64
2024-02-10T23:17:55.493Z,29.50
2024-02-10T23:20:26.964Z,29.61
2024-02-10T23:22:57.877Z,29.68
2024-02-10T23:25:26.194Z,29.84
2024-02-10T23:27:54.232Z,29.92
2024-02-10T23:30:22.312Z,30.12
2024-02-10T23:32:52.434Z,29.97
2024-02-10T23:35:23.184Z,29.70
2024-02-10T23:37:52.125Z,29.49
2024-02-10T23:40:20.221Z,29.77
2024-02-10T23:42:50.130Z,29.52
2024-02-10T23:45:18.372Z,29.64
2024-02-10T23:47:47.138Z,29.74
2024-02-10T23:50:20.766Z,29.96
2024-02-10T23:52:50.371Z,30.18
2024-02-10T23:55:18.539Z,30.36
2024-02-10T23:57:46.548Z,30.48
